createdAt,value
2017-06-12T00:01:20.418Z,18.67
2017-06-12T00:03:47.992Z,18.45
2017-06-12T00:06:15.537Z,18.78
2017-06-12T00:08:43.102Z,18.66
2017-06-12T00:11:10.781Z,18.57
2017-06-12T00:13:38.503Z,18.73
2017-06-12T00:16:06.148Z,18.72
2017-06-12T00:18:33.799Z,18.60
2017-06-12T00:21:01.422Z,18.38
2017-06-12T00:23:29.047Z,18.36
2017-06-12T00:25:56.625Z,18.48
2017-06-12T00:28:24.266Z,18.57
2017-06-12T00:30:51.866Z,18.17
2017-06-12T00:33:22.417Z,18.17
2017-06-12T00:35:52.283Z,18.45
2017-06-12T00:38:19.944Z,18.36
2017-06-12T00:40:50.585Z,18.48
2017-06-12T00:43:20.987Z,18.35
2017-06-12T00:45:53.443Z,17.95
2017-06-12T00:48:25.035Z,18.02
2017-06-12T00:50:56.023Z,18.11
2017-06-12T00:53:23.592Z,18.17
2017-06-12T00:55:51.202Z,18.12
2017-06-12T00:58:18.768Z,18.21
2017-06-12T01:00:46.349Z,18.12
2017-06-12T01:03:13.955Z,17.91
2017-06-12T01:05:44.674Z,17.71
2017-06-12T01:08:14.332Z,17.45
2017-06-12T01:10:41.966Z,17.99
2017-06-12T01:13:12.275Z,18.24
2017-06-12T01:15:42.709Z,18.18
2017-06-12T01:18:11.072Z,18.20
2017-06-12T01:20:40.414Z,17.99
2017-06-12T01:23:09.743Z,18.08
2017-06-12T01:25:37.381Z,17.95
2017-06-12T01:28:05.004Z,18.07
2017-06-12T01:30:32.615Z,17.98
2017-06-12T01:33:00.211Z,17.74
2017-06-12T01:35:27.762Z,17.74
2017-06-12T01:37:55.625Z,17.87
2017-06-12T01:40:23.209Z,17.39
2017-06-12T01:42:50.802Z,17.25
2017-06-12T01:45:18.380Z,17.21
2017-06-12T01:47:45.947Z,16.63
2017-06-12T01:50:13.537Z,17.11
2017-06-12T01:52:41.139Z,17.37
2017-06-12T01:55:10.820Z,17.58
2017-06-12T01:57:41.091Z,17.78
2017-06-12T02:00:09.759Z,17.78
2017-06-12T02:02:39.806Z,17.68
2017-06-12T02:05:08.968Z,17.70
2017-06-12T02:07:36.638Z,17.40
2017-06-12T02:10:05.718Z,17.73
2017-06-12T02:12:33.413Z,17.90
2017-06-12T02:15:03.028Z,17.78
2017-06-12T02:17:33.182Z,17.33
2017-06-12T02:20:00.897Z,17.66
2017-06-12T02:22:28.805Z,17.81
2017-06-12T02:24:58.347Z,17.77
2017-06-12T02:27:28.279Z,17.82
2017-06-12T02:29:57.638Z,17.75
2017-06-12T02:32:26.892Z,17.86
2017-06-12T02:34:57.345Z,17.90
2017-06-12T02:37:25.021Z,17.60
2017-06-12T02:39:53.535Z,17.79
2017-06-12T02:42:24.193Z,17.78
2017-06-12T02:44:54.688Z,17.49
2017-06-12T02:47:22.365Z,17.62
2017-06-12T02:49:51.545Z,17.79
2017-06-12T02:52:21.920Z,17.75
2017-06-12T02:54:51.507Z,17.78
2017-06-12T02:57:19.186Z,17.71
2017-06-12T02:59:46.777Z,17.81
2017-06-12T03:02:15.995Z,17.83
2017-06-12T03:04:45.019Z,17.72
2017-06-12T03:07:12.565Z,17.79
2017-06-12T03:09:42.474Z,17.76
2017-06-12T03:12:10.167Z,17.56
2017-06-12T03:14:40.502Z,17.69
2017-06-12T03:17:11.838Z,17.67
2017-06-12T03:19:40.773Z,17.55
2017-06-12T03:22:10.448Z,17.62
2017-06-12T03:24:38.115Z,17.76
2017-06-12T03:27:05.670Z,17.82
2017-06-12T03:29:34.907Z,17.81
2017-06-12T03:32:03.107Z,17.01
2017-06-12T03:34:32.413Z,17.38
2017-06-12T03:37:02.132Z,17.57
2017-06-12T03:39:29.850Z,17.83
2017-06-12T03:41:57.408Z,17.82
2017-06-12T03:44:26.593Z,17.77
2017-06-12T03:46:54.275Z,17.78
2017-06-12T03:49:21.847Z,17.90
2017-06-12T03:51:51.281Z,17.69
2017-06-12T03:54:18.949Z,17.94
2017-06-12T03:56:48.195Z,18.01
2017-06-12T03:59:17.354Z,17.93
2017-06-12T04:01:46.058Z,17.85
2017-06-12T04:04:15.396Z,18.03
2017-06-12T04:06:43.070Z,18.14
2017-06-12T04:09:10.661Z,18.10
2017-06-12T04:11:38.210Z,18.12
2017-06-12T04:14:05.747Z,18.06
2017-06-12T04:16:33.906Z,18.04
2017-06-12T04:19:01.450Z,18.15
2017-06-12T04:21:29.345Z,18.40
2017-06-12T04:23:56.963Z,18.36
2017-06-12T04:26:24.502Z,18.28
2017-06-12T04:28:52.171Z,18.48
2017-06-12T04:31:19.751Z,18.73
2017-06-12T04:33:47.281Z,18.65
2017-06-12T04:36:14.819Z,18.77
2017-06-12T04:38:42.394Z,18.63
2017-06-12T04:41:09.941Z,18.79
2017-06-12T04:43:37.477Z,18.86
2017-06-12T04:46:05.045Z,18.70
2017-06-12T04:48:32.583Z,19.01
2017-06-12T04:51:00.176Z,19.09
2017-06-12T04:53:27.754Z,18.74
2017-06-12T04:55:55.307Z,18.87
2017-06-12T04:58:22.866Z,19.19
2017-06-12T05:00:50.448Z,19.19
2017-06-12T05:03:17.987Z,19.34
2017-06-12T05:05:46.404Z,19.49
2017-06-12T05:08:13.973Z,19.33
2017-06-12T05:10:41.511Z,18.91
2017-06-12T05:13:09.078Z,18.72
2017-06-12T05:15:36.689Z,18.79
2017-06-12T05:18:04.229Z,18.90
2017-06-12T05:20:31.765Z,18.88
2017-06-12T05:22:59.369Z,19.11
2017-06-12T05:25:26.906Z,19.61
2017-06-12T05:27:54.457Z,19.86
2017-06-12T05:30:22.158Z,19.96
2017-06-12T05:32:49.697Z,20.12
2017-06-12T05:35:17.230Z,20.14
2017-06-12T05:37:44.833Z,20.30
2017-06-12T05:40:12.364Z,20.40
2017-06-12T05:42:39.920Z,20.50
2017-06-12T05:45:07.505Z,20.62
2017-06-12T05:47:35.042Z,20.65
2017-06-12T05:50:02.626Z,20.56
2017-06-12T05:52:30.205Z,20.65
2017-06-12T05:54:57.738Z,20.77
2017-06-12T05:57:25.284Z,21.15
2017-06-12T05:59:52.861Z,21.07
2017-06-12T06:02:20.433Z,21.16
2017-06-12T06:04:47.983Z,21.49
2017-06-12T06:07:15.528Z,21.51
2017-06-12T06:09:43.117Z,21.53
2017-06-12T06:12:10.656Z,21.47
2017-06-12T06:14:38.189Z,21.28
2017-06-12T06:17:05.746Z,21.38
2017-06-12T06:19:33.287Z,21.68
2017-06-12T06:22:00.830Z,22.09
2017-06-12T06:24:28.396Z,22.21
2017-06-12T06:26:55.934Z,22.14
2017-06-12T06:29:23.483Z,21.99
2017-06-12T06:31:51.090Z,22.03
2017-06-12T06:34:18.634Z,22.32
2017-06-12T06:36:46.181Z,22.22
2017-06-12T06:39:13.765Z,22.20
2017-06-12T06:41:41.298Z,22.32
2017-06-12T06:44:08.834Z,22.03
2017-06-12T06:46:36.422Z,22.61
2017-06-12T06:49:03.970Z,22.56
2017-06-12T06:51:31.512Z,22.39
2017-06-12T06:53:59.097Z,22.50
2017-06-12T06:56:26.633Z,22.49
2017-06-12T06:58:54.217Z,22.70
2017-06-12T07:01:21.825Z,22.67
2017-06-12T07:03:49.365Z,22.93
2017-06-12T07:06:16.902Z,22.97
2017-06-12T07:08:44.474Z,22.86
2017-06-12T07:11:12.048Z,22.93
2017-06-12T07:13:39.586Z,22.98
2017-06-12T07:16:07.153Z,23.01
2017-06-12T07:18:34.689Z,23.46
2017-06-12T07:21:02.219Z,23.31
2017-06-12T07:23:29.789Z,23.31
2017-06-12T07:25:57.317Z,23.46
2017-06-12T07:28:24.874Z,23.48
2017-06-12T07:30:52.446Z,23.74
2017-06-12T07:33:19.974Z,24.12
2017-06-12T07:35:47.507Z,24.28
2017-06-12T07:38:15.095Z,24.15
2017-06-12T07:40:42.623Z,23.88
2017-06-12T07:43:10.158Z,23.68
2017-06-12T07:45:37.741Z,24.16
2017-06-12T07:48:05.272Z,24.69
2017-06-12T07:50:32.809Z,24.80
2017-06-12T07:53:00.377Z,24.74
2017-06-12T07:55:27.913Z,24.81
2017-06-12T07:57:55.454Z,24.74
2017-06-12T08:00:23.189Z,24.90
2017-06-12T08:02:50.741Z,24.61
2017-06-12T08:05:18.279Z,24.79
2017-06-12T08:07:45.847Z,25.20
2017-06-12T08:10:13.386Z,25.16
2017-06-12T08:12:40.949Z,24.86
2017-06-12T08:15:08.507Z,24.64
2017-06-12T08:17:36.047Z,24.66
2017-06-12T08:20:03.581Z,24.93
2017-06-12T08:22:31.153Z,25.43
2017-06-12T08:24:58.697Z,25.53
2017-06-12T08:27:26.238Z,25.56
2017-06-12T08:29:53.825Z,25.34
2017-06-12T08:32:21.394Z,25.14
2017-06-12T08:34:48.925Z,25.15
2017-06-12T08:37:16.457Z,24.87
2017-06-12T08:39:44.026Z,25.12
2017-06-12T08:42:11.554Z,25.27
2017-06-12T08:44:39.087Z,25.38
2017-06-12T08:47:06.663Z,24.95
2017-06-12T08:49:34.194Z,25.41
2017-06-12T08:52:01.734Z,25.28
2017-06-12T08:54:29.315Z,24.97
2017-06-12T08:56:56.903Z,24.92
2017-06-12T08:59:24.433Z,25.17
2017-06-12T09:01:51.997Z,25.21
2017-06-12T09:04:19.527Z,25.53
2017-06-12T09:06:47.058Z,25.70
2017-06-12T09:09:14.642Z,25.62
2017-06-12T09:11:42.182Z,25.74
2017-06-12T09:14:09.714Z,26.11
2017-06-12T09:16:37.286Z,26.36
2017-06-12T09:19:04.822Z,26.35
2017-06-12T09:21:32.353Z,26.51
2017-06-12T09:23:59.917Z,26.01
2017-06-12T09:26:27.829Z,26.12
2017-06-12T09:28:55.797Z,26.20
2017-06-12T09:31:23.376Z,25.75
2017-06-12T09:33:50.926Z,26.12
2017-06-12T09:36:18.503Z,26.34
2017-06-12T09:38:46.078Z,25.99
2017-06-12T09:41:13.605Z,25.96
2017-06-12T09:43:41.146Z,25.67
2017-06-12T09:46:08.722Z,26.06
2017-06-12T09:48:36.259Z,26.77
2017-06-12T09:51:04.017Z,26.98
2017-06-12T09:53:31.618Z,26.33
2017-06-12T09:55:59.505Z,26.16
2017-06-12T09:58:27.044Z,26.46
2017-06-12T10:00:54.618Z,26.44
2017-06-12T10:03:22.151Z,26.44
2017-06-12T10:05:49.683Z,26.61
2017-06-12T10:08:17.652Z,26.94
2017-06-12T10:10:45.186Z,27.08
2017-06-12T10:13:12.726Z,27.27
2017-06-12T10:15:40.287Z,26.49
2017-06-12T10:18:07.824Z,26.10
2017-06-12T10:20:35.358Z,26.25
2017-06-12T10:23:02.919Z,26.66
2017-06-12T10:25:30.459Z,27.01
2017-06-12T10:27:58.004Z,27.18
2017-06-12T10:30:25.714Z,27.35
2017-06-12T10:32:53.292Z,26.81
2017-06-12T10:35:21.053Z,26.34
2017-06-12T10:37:48.945Z,26.24
2017-06-12T10:40:16.485Z,26.31
2017-06-12T10:42:44.056Z,26.22
2017-06-12T10:45:11.632Z,26.36
2017-06-12T10:47:39.166Z,26.32
2017-06-12T10:50:06.702Z,26.46
2017-06-12T10:52:34.274Z,26.78
2017-06-12T10:55:01.810Z,26.76
2017-06-12T10:57:29.340Z,26.95
2017-06-12T10:59:56.926Z,27.56
2017-06-12T11:02:24.490Z,27.57
2017-06-12T11:04:52.310Z,27.63
2017-06-12T11:07:19.849Z,27.16
2017-06-12T11:09:47.422Z,26.78
2017-06-12T11:12:14.949Z,26.94
2017-06-12T11:14:42.478Z,26.47
2017-06-12T11:17:10.046Z,26.31
2017-06-12T11:19:37.868Z,26.58
2017-06-12T11:22:05.399Z,26.90
2017-06-12T11:24:38.592Z,27.40
2017-06-12T11:27:06.136Z,27.48
2017-06-12T11:29:37.400Z,27.73
2017-06-12T11:32:08.338Z,27.98
2017-06-12T11:34:35.869Z,28.03
2017-06-12T11:37:03.417Z,28.18
2017-06-12T11:39:30.989Z,27.57
2017-06-12T11:41:58.525Z,26.98
2017-06-12T11:44:26.060Z,26.74
2017-06-12T11:46:53.629Z,27.42
2017-06-12T11:49:21.172Z,27.71
2017-06-12T11:51:48.714Z,27.20
2017-06-12T11:54:16.269Z,27.14
2017-06-12T11:56:44.165Z,27.17
2017-06-12T11:59:11.702Z,27.35
2017-06-12T12:01:39.311Z,27.42
2017-06-12T12:04:06.854Z,27.86
2017-06-12T12:06:34.390Z,27.92
2017-06-12T12:09:02.002Z,27.40
2017-06-12T12:11:31.066Z,27.00
2017-06-12T12:13:58.597Z,26.97
2017-06-12T12:16:26.194Z,27.21
2017-06-12T12:18:53.801Z,27.34
2017-06-12T12:21:21.332Z,27.10
2017-06-12T12:23:48.928Z,27.02
2017-06-12T12:26:16.458Z,27.01
2017-06-12T12:28:44.289Z,27.16
2017-06-12T12:31:11.851Z,27.45
2017-06-12T12:33:39.608Z,27.38
2017-06-12T12:36:07.138Z,26.89
2017-06-12T12:38:34.746Z,27.47
2017-06-12T12:41:02.279Z,27.56
2017-06-12T12:43:29.807Z,27.43
2017-06-12T12:45:58.159Z,26.82
2017-06-12T12:48:25.686Z,26.92
2017-06-12T12:50:53.490Z,26.72
2017-06-12T12:53:21.067Z,26.72
2017-06-12T12:55:48.598Z,27.02
2017-06-12T12:58:16.175Z,27.06
2017-06-12T13:00:43.867Z,26.84
2017-06-12T13:03:11.423Z,26.93
2017-06-12T13:05:38.958Z,26.84
2017-06-12T13:08:06.561Z,27.08
2017-06-12T13:10:34.114Z,27.18
2017-06-12T13:13:01.678Z,27.10
2017-06-12T13:15:29.553Z,27.39
2017-06-12T13:17:57.087Z,27.08
2017-06-12T13:20:24.613Z,27.05
2017-06-12T13:22:52.298Z,27.17
2017-06-12T13:25:19.841Z,27.28
2017-06-12T13:27:47.408Z,27.22
2017-06-12T13:30:15.202Z,27.58
2017-06-12T13:32:42.750Z,27.34
2017-06-12T13:35:10.308Z,26.89
2017-06-12T13:37:38.219Z,27.31
2017-06-12T13:40:05.763Z,27.05
2017-06-12T13:42:33.305Z,27.24
2017-06-12T13:45:00.879Z,27.26
2017-06-12T13:47:28.457Z,27.33
2017-06-12T13:49:55.995Z,27.02
2017-06-12T13:52:23.611Z,26.82
2017-06-12T13:54:51.421Z,26.68
2017-06-12T13:57:19.227Z,26.64
2017-06-12T13:59:46.796Z,26.58
2017-06-12T14:02:14.733Z,26.47
2017-06-12T14:04:42.377Z,26.55
2017-06-12T14:07:09.904Z,26.64
2017-06-12T14:09:37.679Z,26.86
2017-06-12T14:12:05.345Z,26.77
2017-06-12T14:14:32.890Z,26.77
2017-06-12T14:17:00.577Z,26.84
2017-06-12T14:19:28.560Z,26.89
2017-06-12T14:21:56.098Z,26.71
2017-06-12T14:24:23.661Z,26.59
2017-06-12T14:26:51.347Z,26.60
2017-06-12T14:29:19.142Z,26.74
2017-06-12T14:31:47.205Z,26.72
2017-06-12T14:34:14.771Z,26.56
2017-06-12T14:36:43.102Z,26.50
2017-06-12T14:39:10.670Z,26.55
2017-06-12T14:41:38.209Z,26.44
2017-06-12T14:44:06.069Z,26.43
2017-06-12T14:46:33.628Z,26.28
2017-06-12T14:49:01.437Z,26.51
2017-06-12T14:51:29.242Z,26.30
2017-06-12T14:53:56.837Z,26.30
2017-06-12T14:56:24.376Z,26.51
2017-06-12T14:58:52.513Z,26.55
2017-06-12T15:01:20.093Z,26.55
2017-06-12T15:03:47.621Z,26.47
2017-06-12T15:06:15.184Z,26.57
2017-06-12T15:08:42.753Z,26.46
2017-06-12T15:11:10.291Z,26.61
2017-06-12T15:13:37.844Z,26.43
2017-06-12T15:16:05.450Z,26.56
2017-06-12T15:18:33.039Z,26.54
2017-06-12T15:21:00.569Z,26.49
2017-06-12T15:23:28.148Z,26.60
2017-06-12T15:25:55.695Z,26.37
2017-06-12T15:28:23.618Z,26.21
2017-06-12T15:30:51.190Z,26.35
2017-06-12T15:33:18.786Z,26.33
2017-06-12T15:35:46.317Z,26.25
2017-06-12T15:38:13.886Z,26.18
2017-06-12T15:40:41.413Z,26.34
2017-06-12T15:43:08.959Z,26.43
2017-06-12T15:45:36.525Z,26.57
2017-06-12T15:48:04.059Z,26.50
2017-06-12T15:50:31.585Z,26.39
2017-06-12T15:52:59.182Z,26.33
2017-06-12T15:55:26.714Z,26.53
2017-06-12T15:57:54.252Z,26.54
2017-06-12T16:00:21.846Z,26.46
2017-06-12T16:02:49.383Z,26.50
2017-06-12T16:05:16.914Z,26.35
2017-06-12T16:07:44.497Z,26.36
2017-06-12T16:10:12.080Z,26.45
2017-06-12T16:12:39.856Z,26.42
2017-06-12T16:15:07.426Z,26.50
2017-06-12T16:17:34.990Z,26.42
2017-06-12T16:20:02.522Z,26.33
2017-06-12T16:22:30.098Z,26.24
2017-06-12T16:24:57.656Z,26.09
2017-06-12T16:27:25.189Z,26.06
2017-06-12T16:29:52.754Z,26.07
2017-06-12T16:32:20.321Z,26.07
2017-06-12T16:34:47.909Z,26.06
2017-06-12T16:37:15.647Z,26.09
2017-06-12T16:39:43.227Z,25.93
2017-06-12T16:42:11.330Z,25.70
2017-06-12T16:44:39.682Z,25.68
2017-06-12T16:47:07.252Z,25.58
2017-06-12T16:50:32.358Z,25.54
2017-06-12T16:53:01.864Z,25.46
2017-06-12T16:55:29.785Z,25.55
2017-06-12T16:57:57.560Z,25.67
2017-06-12T17:00:25.151Z,25.65
2017-06-12T17:02:52.690Z,25.54
2017-06-12T17:05:20.218Z,25.55
2017-06-12T17:07:47.805Z,25.40
2017-06-12T17:10:15.329Z,25.44
2017-06-12T17:12:42.865Z,25.34
2017-06-12T17:15:10.437Z,25.35
2017-06-12T17:17:37.964Z,25.28
2017-06-12T17:20:05.506Z,25.20
2017-06-12T17:22:33.098Z,25.23
2017-06-12T17:25:00.651Z,25.26
2017-06-12T17:27:28.229Z,25.27
2017-06-12T17:29:55.807Z,25.30
2017-06-12T17:32:23.398Z,25.04
2017-06-12T17:34:50.947Z,25.20
2017-06-12T17:37:18.497Z,25.21
2017-06-12T17:39:46.069Z,25.19
2017-06-12T17:42:13.626Z,25.22
2017-06-12T17:44:41.174Z,25.26
2017-06-12T17:47:08.791Z,25.37
2017-06-12T17:49:36.413Z,25.10
2017-06-12T17:52:04.049Z,25.04
2017-06-12T17:54:31.655Z,25.02
2017-06-12T17:57:00.294Z,24.90
2017-06-12T17:59:27.837Z,24.91
2017-06-12T18:01:56.168Z,24.78
2017-06-12T18:04:23.692Z,24.79
2017-06-12T18:06:51.349Z,24.75
2017-06-12T18:09:18.978Z,24.71
2017-06-12T18:11:46.558Z,24.72
2017-06-12T18:14:15.286Z,24.65
2017-06-12T18:16:42.922Z,24.70
2017-06-12T18:19:10.803Z,24.68
2017-06-12T18:21:38.500Z,24.62
2017-06-12T18:24:07.661Z,24.41
2017-06-12T18:26:35.722Z,24.46
2017-06-12T18:29:03.393Z,24.61
2017-06-12T18:31:31.172Z,24.58
2017-06-12T18:34:00.246Z,24.64
2017-06-12T18:36:28.080Z,24.71
2017-06-12T18:38:55.855Z,24.68
2017-06-12T18:41:23.612Z,24.71
2017-06-12T18:43:51.750Z,24.67
2017-06-12T18:46:19.534Z,24.55
2017-06-12T18:48:47.326Z,24.63
2017-06-12T18:51:15.202Z,24.47
2017-06-12T18:53:43.182Z,24.54
2017-06-12T18:56:10.921Z,24.60
2017-06-12T18:58:38.729Z,24.55
2017-06-12T19:01:06.499Z,24.60
2017-06-12T19:03:35.043Z,24.65
2017-06-12T19:06:02.814Z,24.47
2017-06-12T19:08:30.631Z,24.43
2017-06-12T19:10:58.555Z,24.09
2017-06-12T19:13:26.343Z,24.21
2017-06-12T19:15:54.133Z,24.11
2017-06-12T19:18:21.899Z,23.40
2017-06-12T19:20:49.782Z,23.17
2017-06-12T19:23:17.627Z,23.35
2017-06-12T19:25:45.478Z,22.89
2017-06-12T19:28:13.323Z,22.83
2017-06-12T19:30:41.348Z,22.92
2017-06-12T19:33:09.138Z,22.96
2017-06-12T19:35:36.831Z,22.93
2017-06-12T19:38:04.579Z,22.84
2017-06-12T19:40:32.286Z,22.92
2017-06-12T19:42:59.978Z,22.92
2017-06-12T19:45:28.019Z,22.92
2017-06-12T19:47:55.625Z,22.64
2017-06-12T19:50:23.263Z,22.66
2017-06-12T19:52:50.901Z,22.77
2017-06-12T19:55:18.790Z,22.69
2017-06-12T19:57:46.714Z,22.74
2017-06-12T20:00:14.687Z,22.56
2017-06-12T20:02:42.263Z,22.64
2017-06-12T20:05:10.182Z,22.42
2017-06-12T20:07:37.826Z,22.45
2017-06-12T20:10:05.398Z,22.36
2017-06-12T20:12:32.949Z,22.40
2017-06-12T20:15:00.522Z,22.66
2017-06-12T20:17:28.076Z,22.41
2017-06-12T20:19:55.630Z,22.60
2017-06-12T20:22:23.207Z,22.57
2017-06-12T20:24:50.750Z,22.42
2017-06-12T20:27:18.296Z,22.08
2017-06-12T20:29:45.883Z,22.02
2017-06-12T20:32:14.293Z,21.96
2017-06-12T20:34:41.833Z,21.61
2017-06-12T20:37:09.381Z,21.82
2017-06-12T20:39:36.962Z,21.74
2017-06-12T20:42:04.805Z,21.51
2017-06-12T20:44:32.353Z,21.57
2017-06-12T20:46:59.931Z,21.31
2017-06-12T20:49:27.486Z,21.11
2017-06-12T20:51:55.009Z,21.14
2017-06-12T20:54:23.467Z,21.06
2017-06-12T20:56:50.997Z,21.05
2017-06-12T20:59:18.521Z,20.92
2017-06-12T21:01:46.102Z,20.93
2017-06-12T21:04:13.646Z,20.97
2017-06-12T21:06:41.173Z,21.07
2017-06-12T21:09:08.761Z,20.83
2017-06-12T21:11:36.318Z,20.66
2017-06-12T21:14:03.854Z,20.61
2017-06-12T21:16:31.453Z,20.69
2017-06-12T21:18:58.986Z,20.50
2017-06-12T21:21:26.520Z,20.44
2017-06-12T21:23:54.106Z,20.43
2017-06-12T21:26:21.910Z,20.41
2017-06-12T21:28:49.514Z,20.74
2017-06-12T21:31:17.086Z,20.41
2017-06-12T21:33:44.615Z,20.70
2017-06-12T21:36:12.180Z,20.82
2017-06-12T21:38:39.752Z,20.92
2017-06-12T21:41:07.286Z,21.05
2017-06-12T21:43:34.830Z,21.03
2017-06-12T21:46:02.436Z,21.05
2017-06-12T21:48:29.965Z,20.75
2017-06-12T21:50:57.502Z,20.87
2017-06-12T21:53:25.086Z,20.98
2017-06-12T21:55:52.620Z,21.01
2017-06-12T21:58:20.153Z,20.47
2017-06-12T22:00:47.742Z,20.65
2017-06-12T22:03:15.282Z,20.23
2017-06-12T22:05:42.837Z,20.61
2017-06-12T22:08:10.403Z,20.59
2017-06-12T22:10:37.958Z,20.38
2017-06-12T22:13:05.485Z,20.39
2017-06-12T22:15:33.050Z,20.29
2017-06-12T22:18:00.577Z,20.35
2017-06-12T22:20:28.122Z,20.28
2017-06-12T22:22:55.682Z,20.39
2017-06-12T22:25:23.230Z,20.27
2017-06-12T22:27:50.798Z,20.23
2017-06-12T22:30:19.269Z,20.19
2017-06-12T22:32:46.815Z,20.33
2017-06-12T22:35:14.354Z,20.10
2017-06-12T22:37:41.926Z,20.52
2017-06-12T22:40:09.465Z,20.46
2017-06-12T22:42:37.042Z,20.49
2017-06-12T22:45:04.614Z,20.12
2017-06-12T22:47:32.161Z,20.38
2017-06-12T22:49:59.708Z,20.12
2017-06-12T22:52:27.304Z,19.97
2017-06-12T22:54:54.839Z,19.80
2017-06-12T22:57:22.368Z,19.67
2017-06-12T22:59:49.941Z,19.96
2017-06-12T23:02:17.509Z,19.83
2017-06-12T23:04:45.050Z,19.74
2017-06-12T23:07:12.576Z,20.01
2017-06-12T23:09:40.151Z,20.25
2017-06-12T23:12:07.912Z,20.31
2017-06-12T23:14:35.815Z,20.68
2017-06-12T23:17:03.383Z,20.87
2017-06-12T23:19:30.913Z,20.98
2017-06-12T23:21:58.448Z,20.93
2017-06-12T23:24:26.042Z,20.77
2017-06-12T23:26:53.591Z,20.80
2017-06-12T23:29:21.130Z,20.92
2017-06-12T23:31:48.699Z,20.97
2017-06-12T23:34:16.233Z,20.98
2017-06-12T23:36:43.777Z,21.03
2017-06-12T23:39:11.342Z,21.00
2017-06-12T23:41:38.878Z,20.92
2017-06-12T23:44:06.426Z,20.84
2017-06-12T23:46:34.020Z,20.82
2017-06-12T23:49:01.614Z,20.85
2017-06-12T23:51:29.147Z,20.86
2017-06-12T23:53:56.722Z,20.76
2017-06-12T23:56:24.257Z,20.60
2017-06-12T23:58:51.844Z,20.68
